PWSweather.com
Personal Weather Stations
Station Observations
EDGELEY
Edgeley, Nd, Edgeley, ND 58433

Edgeley, NdEdgeley, ND 58433

Lat: 46.3599246, Lon: -98.7144392

Elevation: 1575

Station Type: Davis/Vantage Pro

www.edgeleyweather.com

High Low Average
Temperature -1.0°F-18.3°F -10.1°F-23.4°F -6.1°F-21.2°F
Dew Point -5.6°F-20.9°F -14.1°F-25.6°F -10.2°F-23.4°F
Winds 12.0 mph -19.3 mph - Calm Calm 3.4 mph 5.5 mph
Wind Gusts 16.0 mph25.7 mph -- 7.0 mph11.3 mph
Humidity 83% 79% 82%
Pressure 30.82 in1043.70 in 30.58 in1035.60 in -
Precipitation 0.00 in0.00 in - -
Hour Temp Dew Point Humidity Winds Wind Gusts Pressure Precip Precip Rate Daily Precip Total
12:00 AM -7.0°F-21.7°C -10.8°F-23.8°C 83% 7.0 mph N11.3 kmh N 11.0 mph17.7 kmh 30.58 in1035.6 mb 0.00 in0.0 mm 0.00 in0.0 mm 0.00 in0.0 mm
12:05 AM -7.1°F-21.7°C -10.9°F-23.8°C 83% 6.0 mph N9.7 kmh N 15.0 mph24.1 kmh 30.58 in1035.6 mb 0.00 in0.0 mm 0.00 in0.0 mm 0.00 in0.0 mm
12:10 AM -7.1°F-21.7°C -10.9°F-23.8°C 83% 5.0 mph N8.0 kmh N 15.0 mph24.1 kmh 30.58 in1035.6 mb 0.00 in0.0 mm 0.00 in0.0 mm 0.00 in0.0 mm
12:15 AM -7.1°F-21.7°C -10.9°F-23.8°C 83% 2.0 mph N3.2 kmh N 8.0 mph12.9 kmh 30.58 in1035.6 mb 0.00 in0.0 mm 0.00 in0.0 mm 0.00 in0.0 mm
12:20 AM -7.2°F-21.8°C -11.0°F-23.9°C 83% 3.0 mph N4.8 kmh N 11.0 mph17.7 kmh 30.58 in1035.6 mb 0.00 in0.0 mm 0.00 in0.0 mm 0.00 in0.0 mm
12:25 AM -7.3°F-21.8°C -11.1°F-23.9°C 83% 5.0 mph N8.0 kmh N 12.0 mph19.3 kmh 30.59 in1035.9 mb 0.00 in0.0 mm 0.00 in0.0 mm 0.00 in0.0 mm
12:30 AM -7.3°F-21.8°C -11.1°F-23.9°C 83% 8.0 mph N12.9 kmh N 8.0 mph12.9 kmh 30.59 in1035.9 mb 0.00 in0.0 mm 0.00 in0.0 mm 0.00 in0.0 mm
12:35 AM -7.3°F-21.8°C -11.1°F-23.9°C 83% 8.0 mph N12.9 kmh N 10.0 mph16.1 kmh 30.59 in1035.9 mb 0.00 in0.0 mm 0.00 in0.0 mm 0.00 in0.0 mm
12:40 AM -7.4°F-21.9°C -11.2°F-24.0°C 83% 5.0 mph N8.0 kmh N 12.0 mph19.3 kmh 30.59 in1035.9 mb 0.00 in0.0 mm 0.00 in0.0 mm 0.00 in0.0 mm
12:45 AM -7.5°F-21.9°C -11.3°F-24.1°C 83% 7.0 mph N11.3 kmh N 7.0 mph11.3 kmh 30.60 in1036.2 mb 0.00 in0.0 mm 0.00 in0.0 mm 0.00 in0.0 mm
12:50 AM -7.6°F-22.0°C -11.4°F-24.1°C 83% 4.0 mph N6.4 kmh N 12.0 mph19.3 kmh 30.60 in1036.2 mb 0.00 in0.0 mm 0.00 in0.0 mm 0.00 in0.0 mm
12:55 AM -7.6°F-22.0°C -11.4°F-24.1°C 83% 5.0 mph N8.0 kmh N 15.0 mph24.1 kmh 30.60 in1036.2 mb 0.00 in0.0 mm 0.00 in0.0 mm 0.00 in0.0 mm
01:00 AM -7.6°F-22.0°C -11.4°F-24.1°C 83% 5.0 mph N8.0 kmh N 9.0 mph14.5 kmh 30.60 in1036.2 mb 0.00 in0.0 mm 0.00 in0.0 mm 0.00 in0.0 mm
01:05 AM -7.7°F-22.1°C -11.5°F-24.2°C 83% Calm Calm 11.0 mph17.7 kmh 30.60 in1036.2 mb 0.00 in0.0 mm 0.00 in0.0 mm 0.00 in0.0 mm
01:10 AM -7.7°F-22.1°C -11.5°F-24.2°C 83% 4.0 mph N6.4 kmh N 15.0 mph24.1 kmh 30.61 in1036.6 mb 0.00 in0.0 mm 0.00 in0.0 mm 0.00 in0.0 mm
01:15 AM -7.8°F-22.1°C -11.6°F-24.2°C 83% 7.0 mph N11.3 kmh N 9.0 mph14.5 kmh 30.61 in1036.6 mb 0.00 in0.0 mm 0.00 in0.0 mm 0.00 in0.0 mm
01:20 AM -7.8°F-22.1°C -11.6°F-24.2°C 83% 8.0 mph N12.9 kmh N 15.0 mph24.1 kmh 30.61 in1036.6 mb 0.00 in0.0 mm 0.00 in0.0 mm 0.00 in0.0 mm
01:25 AM -7.9°F-22.2°C -11.7°F-24.3°C 83% 5.0 mph N8.0 kmh N 15.0 mph24.1 kmh 30.61 in1036.6 mb 0.00 in0.0 mm 0.00 in0.0 mm 0.00 in0.0 mm
01:30 AM -7.9°F-22.2°C -11.7°F-24.3°C 83% 7.0 mph N11.3 kmh N 8.0 mph12.9 kmh 30.61 in1036.6 mb 0.00 in0.0 mm 0.00 in0.0 mm 0.00 in0.0 mm
01:35 AM -8.0°F-22.2°C -11.8°F-24.3°C 83% 5.0 mph N8.0 kmh N 12.0 mph19.3 kmh 30.61 in1036.6 mb 0.00 in0.0 mm 0.00 in0.0 mm 0.00 in0.0 mm
01:40 AM -8.1°F-22.3°C -11.9°F-24.4°C 83% 6.0 mph N9.7 kmh N 12.0 mph19.3 kmh 30.61 in1036.6 mb 0.00 in0.0 mm 0.00 in0.0 mm 0.00 in0.0 mm
01:45 AM -8.1°F-22.3°C -11.9°F-24.4°C 83% 4.0 mph N6.4 kmh N 8.0 mph12.9 kmh 30.61 in1036.6 mb 0.00 in0.0 mm 0.00 in0.0 mm 0.00 in0.0 mm
01:50 AM -8.2°F-22.3°C -12.0°F-24.4°C 83% 4.0 mph N6.4 kmh N 12.0 mph19.3 kmh 30.61 in1036.6 mb 0.00 in0.0 mm 0.00 in0.0 mm 0.00 in0.0 mm
01:55 AM -8.2°F-22.3°C -12.0°F-24.4°C 83% 6.0 mph N9.7 kmh N 13.0 mph20.9 kmh 30.62 in1036.9 mb 0.00 in0.0 mm 0.00 in0.0 mm 0.00 in0.0 mm
02:00 AM -8.2°F-22.3°C -12.0°F-24.4°C 83% 8.0 mph N12.9 kmh N 8.0 mph12.9 kmh 30.62 in1036.9 mb 0.00 in0.0 mm 0.00 in0.0 mm 0.00 in0.0 mm
02:05 AM -8.2°F-22.3°C -12.0°F-24.4°C 83% 6.0 mph N9.7 kmh N 12.0 mph19.3 kmh 30.62 in1036.9 mb 0.00 in0.0 mm 0.00 in0.0 mm 0.00 in0.0 mm
02:10 AM -8.2°F-22.3°C -12.0°F-24.4°C 83% 7.0 mph N11.3 kmh N 12.0 mph19.3 kmh 30.63 in1037.3 mb 0.00 in0.0 mm 0.00 in0.0 mm 0.00 in0.0 mm
02:15 AM -8.2°F-22.3°C -12.0°F-24.4°C 83% 8.0 mph N12.9 kmh N 10.0 mph16.1 kmh 30.62 in1036.9 mb 0.00 in0.0 mm 0.00 in0.0 mm 0.00 in0.0 mm
02:20 AM -8.2°F-22.3°C -12.0°F-24.4°C 83% 11.0 mph N17.7 kmh N 12.0 mph19.3 kmh 30.62 in1036.9 mb 0.00 in0.0 mm 0.00 in0.0 mm 0.00 in0.0 mm
02:25 AM -8.2°F-22.3°C -12.0°F-24.4°C 83% 8.0 mph N12.9 kmh N 15.0 mph24.1 kmh 30.62 in1036.9 mb 0.00 in0.0 mm 0.00 in0.0 mm 0.00 in0.0 mm
02:30 AM -8.2°F-22.3°C -12.0°F-24.4°C 83% 9.0 mph N14.5 kmh N 9.0 mph14.5 kmh 30.63 in1037.3 mb 0.00 in0.0 mm 0.00 in0.0 mm 0.00 in0.0 mm
02:35 AM -8.3°F-22.4°C -12.1°F-24.5°C 83% 7.0 mph N11.3 kmh N 10.0 mph16.1 kmh 30.63 in1037.3 mb 0.00 in0.0 mm 0.00 in0.0 mm 0.00 in0.0 mm
02:40 AM -8.3°F-22.4°C -12.1°F-24.5°C 83% 6.0 mph N9.7 kmh N 12.0 mph19.3 kmh 30.63 in1037.3 mb 0.00 in0.0 mm 0.00 in0.0 mm 0.00 in0.0 mm
02:45 AM -8.3°F-22.4°C -12.1°F-24.5°C 83% 6.0 mph N9.7 kmh N 6.0 mph9.7 kmh 30.63 in1037.3 mb 0.00 in0.0 mm 0.00 in0.0 mm 0.00 in0.0 mm
02:50 AM -8.3°F-22.4°C -12.1°F-24.5°C 83% 5.0 mph N8.0 kmh N 16.0 mph25.7 kmh 30.64 in1037.6 mb 0.00 in0.0 mm 0.00 in0.0 mm 0.00 in0.0 mm
02:55 AM -8.3°F-22.4°C -12.1°F-24.5°C 83% 5.0 mph N8.0 kmh N 16.0 mph25.7 kmh 30.64 in1037.6 mb 0.00 in0.0 mm 0.00 in0.0 mm 0.00 in0.0 mm
03:00 AM -8.2°F-22.3°C -12.0°F-24.4°C 83% 8.0 mph N12.9 kmh N 13.0 mph20.9 kmh 30.65 in1037.9 mb 0.00 in0.0 mm 0.00 in0.0 mm 0.00 in0.0 mm
03:05 AM -8.2°F-22.3°C -12.0°F-24.4°C 83% 5.0 mph N8.0 kmh N 15.0 mph24.1 kmh 30.64 in1037.6 mb 0.00 in0.0 mm 0.00 in0.0 mm 0.00 in0.0 mm
03:10 AM -8.2°F-22.3°C -12.0°F-24.4°C 83% 6.0 mph N9.7 kmh N 15.0 mph24.1 kmh 30.65 in1037.9 mb 0.00 in0.0 mm 0.00 in0.0 mm 0.00 in0.0 mm
03:15 AM -8.2°F-22.3°C -12.0°F-24.4°C 83% 5.0 mph N8.0 kmh N 6.0 mph9.7 kmh 30.65 in1037.9 mb 0.00 in0.0 mm 0.00 in0.0 mm 0.00 in0.0 mm
03:20 AM -8.3°F-22.4°C -12.1°F-24.5°C 83% 9.0 mph N14.5 kmh N 13.0 mph20.9 kmh 30.64 in1037.6 mb 0.00 in0.0 mm 0.00 in0.0 mm 0.00 in0.0 mm
03:25 AM -8.3°F-22.4°C -12.1°F-24.5°C 83% 7.0 mph N11.3 kmh N 14.0 mph22.5 kmh 30.65 in1037.9 mb 0.00 in0.0 mm 0.00 in0.0 mm 0.00 in0.0 mm
03:30 AM -8.3°F-22.4°C -12.1°F-24.5°C 83% 6.0 mph N9.7 kmh N 12.0 mph19.3 kmh 30.65 in1037.9 mb 0.00 in0.0 mm 0.00 in0.0 mm 0.00 in0.0 mm
03:35 AM -8.3°F-22.4°C -12.1°F-24.5°C 83% 5.0 mph N8.0 kmh N 12.0 mph19.3 kmh 30.65 in1037.9 mb 0.00 in0.0 mm 0.00 in0.0 mm 0.00 in0.0 mm
03:40 AM -8.3°F-22.4°C -12.1°F-24.5°C 83% 8.0 mph N12.9 kmh N 14.0 mph22.5 kmh 30.66 in1038.3 mb 0.00 in0.0 mm 0.00 in0.0 mm 0.00 in0.0 mm
03:45 AM -8.3°F-22.4°C -12.1°F-24.5°C 83% 8.0 mph N12.9 kmh N 8.0 mph12.9 kmh 30.66 in1038.3 mb 0.00 in0.0 mm 0.00 in0.0 mm 0.00 in0.0 mm
03:50 AM -8.4°F-22.4°C -12.2°F-24.6°C 83% 3.0 mph N4.8 kmh N 10.0 mph16.1 kmh 30.66 in1038.3 mb 0.00 in0.0 mm 0.00 in0.0 mm 0.00 in0.0 mm
03:55 AM -8.5°F-22.5°C -12.3°F-24.6°C 83% 3.0 mph N4.8 kmh N 10.0 mph16.1 kmh 30.66 in1038.3 mb 0.00 in0.0 mm 0.00 in0.0 mm 0.00 in0.0 mm
04:00 AM -8.5°F-22.5°C -12.3°F-24.6°C 83% 6.0 mph N9.7 kmh N 9.0 mph14.5 kmh 30.66 in1038.3 mb 0.00 in0.0 mm 0.00 in0.0 mm 0.00 in0.0 mm
04:05 AM -8.5°F-22.5°C -12.3°F-24.6°C 83% 11.0 mph N17.7 kmh N 11.0 mph17.7 kmh 30.66 in1038.3 mb 0.00 in0.0 mm 0.00 in0.0 mm 0.00 in0.0 mm
04:10 AM -8.6°F-22.6°C -12.4°F-24.7°C 83% 6.0 mph N9.7 kmh N 14.0 mph22.5 kmh 30.67 in1038.6 mb 0.00 in0.0 mm 0.00 in0.0 mm 0.00 in0.0 mm
04:15 AM -8.6°F-22.6°C -12.4°F-24.7°C 83% 7.0 mph N11.3 kmh N 7.0 mph11.3 kmh 30.67 in1038.6 mb 0.00 in0.0 mm 0.00 in0.0 mm 0.00 in0.0 mm
04:20 AM -8.6°F-22.6°C -12.4°F-24.7°C 83% 8.0 mph N12.9 kmh N 10.0 mph16.1 kmh 30.68 in1038.9 mb 0.00 in0.0 mm 0.00 in0.0 mm 0.00 in0.0 mm
04:25 AM -8.6°F-22.6°C -12.4°F-24.7°C 83% 8.0 mph N12.9 kmh N 11.0 mph17.7 kmh 30.67 in1038.6 mb 0.00 in0.0 mm 0.00 in0.0 mm 0.00 in0.0 mm
04:30 AM -8.6°F-22.6°C -12.4°F-24.7°C 83% 11.0 mph N17.7 kmh N 11.0 mph17.7 kmh 30.68 in1038.9 mb 0.00 in0.0 mm 0.00 in0.0 mm 0.00 in0.0 mm
04:35 AM -8.6°F-22.6°C -12.4°F-24.7°C 83% 2.0 mph N3.2 kmh N 12.0 mph19.3 kmh 30.68 in1038.9 mb 0.00 in0.0 mm 0.00 in0.0 mm 0.00 in0.0 mm
04:40 AM -8.7°F-22.6°C -12.5°F-24.7°C 83% 6.0 mph N9.7 kmh N 12.0 mph19.3 kmh 30.68 in1038.9 mb 0.00 in0.0 mm 0.00 in0.0 mm 0.00 in0.0 mm
04:45 AM -8.7°F-22.6°C -12.5°F-24.7°C 83% 12.0 mph N19.3 kmh N 12.0 mph19.3 kmh 30.68 in1038.9 mb 0.00 in0.0 mm 0.00 in0.0 mm 0.00 in0.0 mm
04:50 AM -8.7°F-22.6°C -12.7°F-24.8°C 82% 5.0 mph N8.0 kmh N 12.0 mph19.3 kmh 30.68 in1038.9 mb 0.00 in0.0 mm 0.00 in0.0 mm 0.00 in0.0 mm
04:55 AM -8.8°F-22.7°C -12.8°F-24.9°C 82% 7.0 mph N11.3 kmh N 12.0 mph19.3 kmh 30.68 in1038.9 mb 0.00 in0.0 mm 0.00 in0.0 mm 0.00 in0.0 mm
05:00 AM -8.9°F-22.7°C -12.9°F-24.9°C 82% 4.0 mph N6.4 kmh N 5.0 mph8.0 kmh 30.68 in1038.9 mb 0.00 in0.0 mm 0.00 in0.0 mm 0.00 in0.0 mm
05:05 AM -9.0°F-22.8°C -13.0°F-25.0°C 82% 9.0 mph N14.5 kmh N 12.0 mph19.3 kmh 30.68 in1038.9 mb 0.00 in0.0 mm 0.00 in0.0 mm 0.00 in0.0 mm
05:10 AM -9.1°F-22.8°C -13.1°F-25.1°C 82% 3.0 mph N4.8 kmh N 12.0 mph19.3 kmh 30.68 in1038.9 mb 0.00 in0.0 mm 0.00 in0.0 mm 0.00 in0.0 mm
05:15 AM -9.1°F-22.8°C -12.9°F-24.9°C 83% 7.0 mph N11.3 kmh N 10.0 mph16.1 kmh 30.68 in1038.9 mb 0.00 in0.0 mm 0.00 in0.0 mm 0.00 in0.0 mm
05:20 AM -9.1°F-22.8°C -13.1°F-25.1°C 82% 9.0 mph N14.5 kmh N 13.0 mph20.9 kmh 30.68 in1038.9 mb 0.00 in0.0 mm 0.00 in0.0 mm 0.00 in0.0 mm
05:25 AM -9.1°F-22.8°C -12.9°F-24.9°C 83% 4.0 mph N6.4 kmh N 13.0 mph20.9 kmh 30.68 in1038.9 mb 0.00 in0.0 mm 0.00 in0.0 mm 0.00 in0.0 mm
05:30 AM -9.1°F-22.8°C -13.1°F-25.1°C 82% 4.0 mph N6.4 kmh N 7.0 mph11.3 kmh 30.68 in1038.9 mb 0.00 in0.0 mm 0.00 in0.0 mm 0.00 in0.0 mm
05:35 AM -9.2°F-22.9°C -13.2°F-25.1°C 82% 5.0 mph N8.0 kmh N 11.0 mph17.7 kmh 30.68 in1038.9 mb 0.00 in0.0 mm 0.00 in0.0 mm 0.00 in0.0 mm
05:40 AM -9.3°F-22.9°C -13.3°F-25.2°C 82% 7.0 mph N11.3 kmh N 11.0 mph17.7 kmh 30.68 in1038.9 mb 0.00 in0.0 mm 0.00 in0.0 mm 0.00 in0.0 mm
05:45 AM -9.3°F-22.9°C -13.3°F-25.2°C 82% 3.0 mph N4.8 kmh N 8.0 mph12.9 kmh 30.69 in1039.3 mb 0.00 in0.0 mm 0.00 in0.0 mm 0.00 in0.0 mm
05:50 AM -9.3°F-22.9°C -13.3°F-25.2°C 82% 5.0 mph N8.0 kmh N 11.0 mph17.7 kmh 30.68 in1038.9 mb 0.00 in0.0 mm 0.00 in0.0 mm 0.00 in0.0 mm
05:55 AM -9.3°F-22.9°C -13.3°F-25.2°C 82% 7.0 mph N11.3 kmh N 12.0 mph19.3 kmh 30.68 in1038.9 mb 0.00 in0.0 mm 0.00 in0.0 mm 0.00 in0.0 mm
06:00 AM -9.3°F-22.9°C -13.3°F-25.2°C 82% 4.0 mph N6.4 kmh N 5.0 mph8.0 kmh 30.68 in1038.9 mb 0.00 in0.0 mm 0.00 in0.0 mm 0.00 in0.0 mm
06:05 AM -9.4°F-23.0°C -13.4°F-25.2°C 82% 5.0 mph N8.0 kmh N 13.0 mph20.9 kmh 30.68 in1038.9 mb 0.00 in0.0 mm 0.00 in0.0 mm 0.00 in0.0 mm
06:10 AM -9.4°F-23.0°C -13.4°F-25.2°C 82% 4.0 mph N6.4 kmh N 13.0 mph20.9 kmh 30.68 in1038.9 mb 0.00 in0.0 mm 0.00 in0.0 mm 0.00 in0.0 mm
06:15 AM -9.5°F-23.1°C -13.5°F-25.3°C 82% 5.0 mph N8.0 kmh N 9.0 mph14.5 kmh 30.68 in1038.9 mb 0.00 in0.0 mm 0.00 in0.0 mm 0.00 in0.0 mm
06:20 AM -9.6°F-23.1°C -13.6°F-25.3°C 82% 8.0 mph N12.9 kmh N 11.0 mph17.7 kmh 30.68 in1038.9 mb 0.00 in0.0 mm 0.00 in0.0 mm 0.00 in0.0 mm
06:25 AM -9.8°F-23.2°C -13.8°F-25.4°C 82% 3.0 mph N4.8 kmh N 11.0 mph17.7 kmh 30.68 in1038.9 mb 0.00 in0.0 mm 0.00 in0.0 mm 0.00 in0.0 mm
06:30 AM -9.8°F-23.2°C -13.8°F-25.4°C 82% 5.0 mph N8.0 kmh N 6.0 mph9.7 kmh 30.69 in1039.3 mb 0.00 in0.0 mm 0.00 in0.0 mm 0.00 in0.0 mm
06:35 AM -9.7°F-23.2°C -13.4°F-25.2°C 83% 4.0 mph N6.4 kmh N 11.0 mph17.7 kmh 30.69 in1039.3 mb 0.00 in0.0 mm 0.00 in0.0 mm 0.00 in0.0 mm
06:40 AM -9.7°F-23.2°C -13.4°F-25.2°C 83% 5.0 mph N8.0 kmh N 11.0 mph17.7 kmh 30.69 in1039.3 mb 0.00 in0.0 mm 0.00 in0.0 mm 0.00 in0.0 mm
06:45 AM -9.7°F-23.2°C -13.4°F-25.2°C 83% 5.0 mph N8.0 kmh N 7.0 mph11.3 kmh 30.69 in1039.3 mb 0.00 in0.0 mm 0.00 in0.0 mm 0.00 in0.0 mm
06:50 AM -9.7°F-23.2°C -13.7°F-25.4°C 82% 4.0 mph N6.4 kmh N 14.0 mph22.5 kmh 30.69 in1039.3 mb 0.00 in0.0 mm 0.00 in0.0 mm 0.00 in0.0 mm
06:55 AM -9.8°F-23.2°C -13.8°F-25.4°C 82% 4.0 mph N6.4 kmh N 14.0 mph22.5 kmh 30.70 in1039.6 mb 0.00 in0.0 mm 0.00 in0.0 mm 0.00 in0.0 mm
07:00 AM -9.8°F-23.2°C -13.8°F-25.4°C 82% 4.0 mph N6.4 kmh N 4.0 mph6.4 kmh 30.70 in1039.6 mb 0.00 in0.0 mm 0.00 in0.0 mm 0.00 in0.0 mm
07:05 AM -9.8°F-23.2°C -13.8°F-25.4°C 82% 5.0 mph N8.0 kmh N 11.0 mph17.7 kmh 30.70 in1039.6 mb 0.00 in0.0 mm 0.00 in0.0 mm 0.00 in0.0 mm
07:10 AM -9.8°F-23.2°C -13.5°F-25.3°C 83% 4.0 mph N6.4 kmh N 11.0 mph17.7 kmh 30.70 in1039.6 mb 0.00 in0.0 mm 0.00 in0.0 mm 0.00 in0.0 mm
07:15 AM -9.8°F-23.2°C -13.5°F-25.3°C 83% 9.0 mph N14.5 kmh N 9.0 mph14.5 kmh 30.70 in1039.6 mb 0.00 in0.0 mm 0.00 in0.0 mm 0.00 in0.0 mm
07:20 AM -9.6°F-23.1°C -13.3°F-25.2°C 83% 10.0 mph N16.1 kmh N 11.0 mph17.7 kmh 30.71 in1040.0 mb 0.00 in0.0 mm 0.00 in0.0 mm 0.00 in0.0 mm
07:25 AM -9.6°F-23.1°C -13.6°F-25.3°C 82% 6.0 mph N9.7 kmh N 11.0 mph17.7 kmh 30.72 in1040.3 mb 0.00 in0.0 mm 0.00 in0.0 mm 0.00 in0.0 mm
07:30 AM -9.5°F-23.1°C -13.5°F-25.3°C 82% 7.0 mph N11.3 kmh N 7.0 mph11.3 kmh 30.72 in1040.3 mb 0.00 in0.0 mm 0.00 in0.0 mm 0.00 in0.0 mm
07:35 AM -9.7°F-23.2°C -13.7°F-25.4°C 82% 4.0 mph N6.4 kmh N 12.0 mph19.3 kmh 30.72 in1040.3 mb 0.00 in0.0 mm 0.00 in0.0 mm 0.00 in0.0 mm
07:40 AM -9.7°F-23.2°C -13.7°F-25.4°C 82% 5.0 mph N8.0 kmh N 12.0 mph19.3 kmh 30.73 in1040.6 mb 0.00 in0.0 mm 0.00 in0.0 mm 0.00 in0.0 mm
07:45 AM -9.7°F-23.2°C -13.7°F-25.4°C 82% 5.0 mph N8.0 kmh N 6.0 mph9.7 kmh 30.72 in1040.3 mb 0.00 in0.0 mm 0.00 in0.0 mm 0.00 in0.0 mm
07:50 AM -9.7°F-23.2°C -13.7°F-25.4°C 82% 6.0 mph N9.7 kmh N 11.0 mph17.7 kmh 30.73 in1040.6 mb 0.00 in0.0 mm 0.00 in0.0 mm 0.00 in0.0 mm
07:55 AM -9.8°F-23.2°C -13.8°F-25.4°C 82% 3.0 mph N4.8 kmh N 11.0 mph17.7 kmh 30.73 in1040.6 mb 0.00 in0.0 mm 0.00 in0.0 mm 0.00 in0.0 mm
08:00 AM -9.8°F-23.2°C -13.8°F-25.4°C 82% 2.0 mph N3.2 kmh N 5.0 mph8.0 kmh 30.73 in1040.6 mb 0.00 in0.0 mm 0.00 in0.0 mm 0.00 in0.0 mm
08:05 AM -9.8°F-23.2°C -13.8°F-25.4°C 82% 2.0 mph N3.2 kmh N 8.0 mph12.9 kmh 30.73 in1040.6 mb 0.00 in0.0 mm 0.00 in0.0 mm 0.00 in0.0 mm
08:10 AM -9.8°F-23.2°C -13.8°F-25.4°C 82% 5.0 mph N8.0 kmh N 9.0 mph14.5 kmh 30.73 in1040.6 mb 0.00 in0.0 mm 0.00 in0.0 mm 0.00 in0.0 mm
08:15 AM -9.9°F-23.3°C -13.9°F-25.5°C 82% 6.0 mph N9.7 kmh N 8.0 mph12.9 kmh 30.74 in1041.0 mb 0.00 in0.0 mm 0.00 in0.0 mm 0.00 in0.0 mm
08:20 AM -9.9°F-23.3°C -13.9°F-25.5°C 82% 4.0 mph N6.4 kmh N 9.0 mph14.5 kmh 30.74 in1041.0 mb 0.00 in0.0 mm 0.00 in0.0 mm 0.00 in0.0 mm
08:25 AM -9.9°F-23.3°C -13.9°F-25.5°C 82% 3.0 mph N4.8 kmh N 9.0 mph14.5 kmh 30.75 in1041.3 mb 0.00 in0.0 mm 0.00 in0.0 mm 0.00 in0.0 mm
08:30 AM -10.0°F-23.3°C -14.0°F-25.6°C 82% 4.0 mph N6.4 kmh N 4.0 mph6.4 kmh 30.75 in1041.3 mb 0.00 in0.0 mm 0.00 in0.0 mm 0.00 in0.0 mm
08:35 AM -10.0°F-23.3°C -14.0°F-25.6°C 82% 2.0 mph N3.2 kmh N 6.0 mph9.7 kmh 30.75 in1041.3 mb 0.00 in0.0 mm 0.00 in0.0 mm 0.00 in0.0 mm
08:40 AM -10.1°F-23.4°C -14.1°F-25.6°C 82% 3.0 mph N4.8 kmh N 9.0 mph14.5 kmh 30.76 in1041.7 mb 0.00 in0.0 mm 0.00 in0.0 mm 0.00 in0.0 mm
08:45 AM -10.0°F-23.3°C -14.0°F-25.6°C 82% 3.0 mph N4.8 kmh N 3.0 mph4.8 kmh 30.76 in1041.7 mb 0.00 in0.0 mm 0.00 in0.0 mm 0.00 in0.0 mm
08:50 AM -9.9°F-23.3°C -13.9°F-25.5°C 82% 6.0 mph N9.7 kmh N 9.0 mph14.5 kmh 30.75 in1041.3 mb 0.00 in0.0 mm 0.00 in0.0 mm 0.00 in0.0 mm
08:55 AM -9.9°F-23.3°C -13.9°F-25.5°C 82% 4.0 mph N6.4 kmh N 11.0 mph17.7 kmh 30.76 in1041.7 mb 0.00 in0.0 mm 0.00 in0.0 mm 0.00 in0.0 mm
09:00 AM -9.8°F-23.2°C -13.8°F-25.4°C 82% 6.0 mph N9.7 kmh N 7.0 mph11.3 kmh 30.76 in1041.7 mb 0.00 in0.0 mm 0.00 in0.0 mm 0.00 in0.0 mm
09:05 AM -9.8°F-23.2°C -13.8°F-25.4°C 82% 4.0 mph N6.4 kmh N 9.0 mph14.5 kmh 30.76 in1041.7 mb 0.00 in0.0 mm 0.00 in0.0 mm 0.00 in0.0 mm
09:10 AM -9.8°F-23.2°C -13.8°F-25.4°C 82% 4.0 mph N6.4 kmh N 10.0 mph16.1 kmh 30.76 in1041.7 mb 0.00 in0.0 mm 0.00 in0.0 mm 0.00 in0.0 mm
09:15 AM -9.7°F-23.2°C -13.7°F-25.4°C 82% 2.0 mph N3.2 kmh N 3.0 mph4.8 kmh 30.75 in1041.3 mb 0.00 in0.0 mm 0.00 in0.0 mm 0.00 in0.0 mm
09:20 AM -9.5°F-23.1°C -13.5°F-25.3°C 82% 3.0 mph N4.8 kmh N 9.0 mph14.5 kmh 30.76 in1041.7 mb 0.00 in0.0 mm 0.00 in0.0 mm 0.00 in0.0 mm
09:25 AM -9.2°F-22.9°C -13.2°F-25.1°C 82% 2.0 mph N3.2 kmh N 9.0 mph14.5 kmh 30.76 in1041.7 mb 0.00 in0.0 mm 0.00 in0.0 mm 0.00 in0.0 mm
09:30 AM -8.9°F-22.7°C -12.7°F-24.8°C 83% 5.0 mph N8.0 kmh N 5.0 mph8.0 kmh 30.76 in1041.7 mb 0.00 in0.0 mm 0.00 in0.0 mm 0.00 in0.0 mm
09:35 AM -8.8°F-22.7°C -12.8°F-24.9°C 82% 5.0 mph N8.0 kmh N 9.0 mph14.5 kmh 30.76 in1041.7 mb 0.00 in0.0 mm 0.00 in0.0 mm 0.00 in0.0 mm
09:40 AM -8.5°F-22.5°C -12.5°F-24.7°C 82% 3.0 mph N4.8 kmh N 9.0 mph14.5 kmh 30.76 in1041.7 mb 0.00 in0.0 mm 0.00 in0.0 mm 0.00 in0.0 mm
09:45 AM -8.3°F-22.4°C -12.3°F-24.6°C 82% 5.0 mph N8.0 kmh N 8.0 mph12.9 kmh 30.76 in1041.7 mb 0.00 in0.0 mm 0.00 in0.0 mm 0.00 in0.0 mm
09:51 AM -8.0°F-22.2°C -12.0°F-24.4°C 82% 3.0 mph N4.8 kmh N 8.0 mph12.9 kmh 30.77 in1042.0 mb 0.00 in0.0 mm 0.00 in0.0 mm 0.00 in0.0 mm
09:55 AM -7.7°F-22.1°C -11.7°F-24.3°C 82% 1.0 mph N1.6 kmh N 11.0 mph17.7 kmh 30.77 in1042.0 mb 0.00 in0.0 mm 0.00 in0.0 mm 0.00 in0.0 mm
10:00 AM -7.5°F-21.9°C -11.5°F-24.2°C 82% 5.0 mph N8.0 kmh N 5.0 mph8.0 kmh 30.77 in1042.0 mb 0.00 in0.0 mm 0.00 in0.0 mm 0.00 in0.0 mm
10:05 AM -7.3°F-21.8°C -11.3°F-24.1°C 82% 2.0 mph N3.2 kmh N 9.0 mph14.5 kmh 30.77 in1042.0 mb 0.00 in0.0 mm 0.00 in0.0 mm 0.00 in0.0 mm
10:10 AM -7.1°F-21.7°C -11.1°F-23.9°C 82% 7.0 mph N11.3 kmh N 11.0 mph17.7 kmh 30.77 in1042.0 mb 0.00 in0.0 mm 0.00 in0.0 mm 0.00 in0.0 mm
10:15 AM -7.1°F-21.7°C -11.1°F-23.9°C 82% 5.0 mph N8.0 kmh N 10.0 mph16.1 kmh 30.78 in1042.3 mb 0.00 in0.0 mm 0.00 in0.0 mm 0.00 in0.0 mm
10:20 AM -7.0°F-21.7°C -11.0°F-23.9°C 82% 6.0 mph N9.7 kmh N 10.0 mph16.1 kmh 30.78 in1042.3 mb 0.00 in0.0 mm 0.00 in0.0 mm 0.00 in0.0 mm
10:25 AM -6.8°F-21.6°C -10.8°F-23.8°C 82% 4.0 mph N6.4 kmh N 10.0 mph16.1 kmh 30.78 in1042.3 mb 0.00 in0.0 mm 0.00 in0.0 mm 0.00 in0.0 mm
10:30 AM -6.6°F-21.4°C -10.6°F-23.7°C 82% 5.0 mph N8.0 kmh N 8.0 mph12.9 kmh 30.78 in1042.3 mb 0.00 in0.0 mm 0.00 in0.0 mm 0.00 in0.0 mm
10:35 AM -6.4°F-21.3°C -10.5°F-23.6°C 82% 5.0 mph N8.0 kmh N 8.0 mph12.9 kmh 30.78 in1042.3 mb 0.00 in0.0 mm 0.00 in0.0 mm 0.00 in0.0 mm
10:40 AM -6.4°F-21.3°C -10.5°F-23.6°C 82% 3.0 mph N4.8 kmh N 14.0 mph22.5 kmh 30.79 in1042.7 mb 0.00 in0.0 mm 0.00 in0.0 mm 0.00 in0.0 mm
10:45 AM -6.1°F-21.2°C -10.2°F-23.4°C 82% 2.0 mph N3.2 kmh N 5.0 mph8.0 kmh 30.78 in1042.3 mb 0.00 in0.0 mm 0.00 in0.0 mm 0.00 in0.0 mm
10:50 AM -6.0°F-21.1°C -10.1°F-23.4°C 82% 4.0 mph N6.4 kmh N 11.0 mph17.7 kmh 30.79 in1042.7 mb 0.00 in0.0 mm 0.00 in0.0 mm 0.00 in0.0 mm
10:55 AM -5.8°F-21.0°C -9.9°F-23.3°C 82% 8.0 mph N12.9 kmh N 11.0 mph17.7 kmh 30.79 in1042.7 mb 0.00 in0.0 mm 0.00 in0.0 mm 0.00 in0.0 mm
11:00 AM -5.7°F-20.9°C -9.8°F-23.2°C 82% 8.0 mph N12.9 kmh N 9.0 mph14.5 kmh 30.79 in1042.7 mb 0.00 in0.0 mm 0.00 in0.0 mm 0.00 in0.0 mm
11:05 AM -5.6°F-20.9°C -9.7°F-23.2°C 82% 3.0 mph N4.8 kmh N 9.0 mph14.5 kmh 30.79 in1042.7 mb 0.00 in0.0 mm 0.00 in0.0 mm 0.00 in0.0 mm
11:10 AM -5.3°F-20.7°C -9.4°F-23.0°C 82% 3.0 mph N4.8 kmh N 9.0 mph14.5 kmh 30.79 in1042.7 mb 0.00 in0.0 mm 0.00 in0.0 mm 0.00 in0.0 mm
11:15 AM -4.9°F-20.5°C -9.0°F-22.8°C 82% 3.0 mph N4.8 kmh N 4.0 mph6.4 kmh 30.78 in1042.3 mb 0.00 in0.0 mm 0.00 in0.0 mm 0.00 in0.0 mm
11:20 AM -4.7°F-20.4°C -8.8°F-22.7°C 82% 4.0 mph N6.4 kmh N 12.0 mph19.3 kmh 30.79 in1042.7 mb 0.00 in0.0 mm 0.00 in0.0 mm 0.00 in0.0 mm
11:25 AM -4.7°F-20.4°C -8.8°F-22.7°C 82% 1.0 mph N1.6 kmh N 12.0 mph19.3 kmh 30.78 in1042.3 mb 0.00 in0.0 mm 0.00 in0.0 mm 0.00 in0.0 mm
11:30 AM -4.6°F-20.3°C -8.7°F-22.6°C 82% 3.0 mph N4.8 kmh N 5.0 mph8.0 kmh 30.78 in1042.3 mb 0.00 in0.0 mm 0.00 in0.0 mm 0.00 in0.0 mm
11:35 AM -4.5°F-20.3°C -8.6°F-22.6°C 82% 4.0 mph N6.4 kmh N 9.0 mph14.5 kmh 30.78 in1042.3 mb 0.00 in0.0 mm 0.00 in0.0 mm 0.00 in0.0 mm
11:40 AM -4.3°F-20.2°C -8.6°F-22.6°C 81% 2.0 mph N3.2 kmh N 11.0 mph17.7 kmh 30.78 in1042.3 mb 0.00 in0.0 mm 0.00 in0.0 mm 0.00 in0.0 mm
11:45 AM -4.1°F-20.1°C -8.2°F-22.3°C 82% 4.0 mph N6.4 kmh N 4.0 mph6.4 kmh 30.78 in1042.3 mb 0.00 in0.0 mm 0.00 in0.0 mm 0.00 in0.0 mm
11:50 AM -4.0°F-20.0°C -8.1°F-22.3°C 82% 6.0 mph N9.7 kmh N 13.0 mph20.9 kmh 30.78 in1042.3 mb 0.00 in0.0 mm 0.00 in0.0 mm 0.00 in0.0 mm
11:55 AM -3.7°F-19.8°C -7.8°F-22.1°C 82% 4.0 mph N6.4 kmh N 13.0 mph20.9 kmh 30.78 in1042.3 mb 0.00 in0.0 mm 0.00 in0.0 mm 0.00 in0.0 mm
12:00 PM -3.5°F-19.7°C -7.9°F-22.2°C 81% 3.0 mph N4.8 kmh N 6.0 mph9.7 kmh 30.78 in1042.3 mb 0.00 in0.0 mm 0.00 in0.0 mm 0.00 in0.0 mm
12:05 PM -3.5°F-19.7°C -7.9°F-22.2°C 81% 4.0 mph N6.4 kmh N 12.0 mph19.3 kmh 30.78 in1042.3 mb 0.00 in0.0 mm 0.00 in0.0 mm 0.00 in0.0 mm
12:10 PM -3.5°F-19.7°C -7.9°F-22.2°C 81% 7.0 mph N11.3 kmh N 12.0 mph19.3 kmh 30.78 in1042.3 mb 0.00 in0.0 mm 0.00 in0.0 mm 0.00 in0.0 mm
12:15 PM -3.2°F-19.6°C -7.3°F-21.8°C 82% 2.0 mph N3.2 kmh N 3.0 mph4.8 kmh 30.78 in1042.3 mb 0.00 in0.0 mm 0.00 in0.0 mm 0.00 in0.0 mm
12:20 PM -3.1°F-19.5°C -7.5°F-21.9°C 81% 3.0 mph N4.8 kmh N 8.0 mph12.9 kmh 30.78 in1042.3 mb 0.00 in0.0 mm 0.00 in0.0 mm 0.00 in0.0 mm
12:25 PM -3.2°F-19.6°C -7.6°F-22.0°C 81% 3.0 mph N4.8 kmh N 9.0 mph14.5 kmh 30.78 in1042.3 mb 0.00 in0.0 mm 0.00 in0.0 mm 0.00 in0.0 mm
12:30 PM -2.9°F-19.4°C -7.0°F-21.7°C 82% 5.0 mph N8.0 kmh N 7.0 mph11.3 kmh 30.78 in1042.3 mb 0.00 in0.0 mm 0.00 in0.0 mm 0.00 in0.0 mm
12:35 PM -2.7°F-19.3°C -6.8°F-21.6°C 82% 6.0 mph N9.7 kmh N 8.0 mph12.9 kmh 30.77 in1042.0 mb 0.00 in0.0 mm 0.00 in0.0 mm 0.00 in0.0 mm
12:40 PM -2.7°F-19.3°C -7.1°F-21.7°C 81% 5.0 mph N8.0 kmh N 11.0 mph17.7 kmh 30.77 in1042.0 mb 0.00 in0.0 mm 0.00 in0.0 mm 0.00 in0.0 mm
12:45 PM -2.7°F-19.3°C -7.1°F-21.7°C 81% 4.0 mph N6.4 kmh N 4.0 mph6.4 kmh 30.78 in1042.3 mb 0.00 in0.0 mm 0.00 in0.0 mm 0.00 in0.0 mm
12:50 PM -2.7°F-19.3°C -7.1°F-21.7°C 81% 3.0 mph N4.8 kmh N 8.0 mph12.9 kmh 30.78 in1042.3 mb 0.00 in0.0 mm 0.00 in0.0 mm 0.00 in0.0 mm
12:55 PM -2.7°F-19.3°C -7.1°F-21.7°C 81% 6.0 mph N9.7 kmh N 8.0 mph12.9 kmh 30.77 in1042.0 mb 0.00 in0.0 mm 0.00 in0.0 mm 0.00 in0.0 mm
01:00 PM -2.7°F-19.3°C -7.1°F-21.7°C 81% 3.0 mph N4.8 kmh N 4.0 mph6.4 kmh 30.78 in1042.3 mb 0.00 in0.0 mm 0.00 in0.0 mm 0.00 in0.0 mm
01:05 PM -2.4°F-19.1°C -6.5°F-21.4°C 82% 2.0 mph N3.2 kmh N 9.0 mph14.5 kmh 30.77 in1042.0 mb 0.00 in0.0 mm 0.00 in0.0 mm 0.00 in0.0 mm
01:10 PM -2.3°F-19.1°C -6.7°F-21.5°C 81% 3.0 mph N4.8 kmh N 9.0 mph14.5 kmh 30.77 in1042.0 mb 0.00 in0.0 mm 0.00 in0.0 mm 0.00 in0.0 mm
01:15 PM -2.1°F-18.9°C -6.5°F-21.4°C 81% 4.0 mph N6.4 kmh N 8.0 mph12.9 kmh 30.77 in1042.0 mb 0.00 in0.0 mm 0.00 in0.0 mm 0.00 in0.0 mm
01:20 PM -2.2°F-19.0°C -6.8°F-21.6°C 80% 4.0 mph N6.4 kmh N 11.0 mph17.7 kmh 30.77 in1042.0 mb 0.00 in0.0 mm 0.00 in0.0 mm 0.00 in0.0 mm
01:25 PM -2.2°F-19.0°C -6.8°F-21.6°C 80% 4.0 mph N6.4 kmh N 11.0 mph17.7 kmh 30.77 in1042.0 mb 0.00 in0.0 mm 0.00 in0.0 mm 0.00 in0.0 mm
01:30 PM -2.0°F-18.9°C -6.4°F-21.3°C 81% 2.0 mph N3.2 kmh N 5.0 mph8.0 kmh 30.77 in1042.0 mb 0.00 in0.0 mm 0.00 in0.0 mm 0.00 in0.0 mm
01:35 PM -2.1°F-18.9°C -6.7°F-21.5°C 80% 5.0 mph N8.0 kmh N 9.0 mph14.5 kmh 30.77 in1042.0 mb 0.00 in0.0 mm 0.00 in0.0 mm 0.00 in0.0 mm
01:40 PM -2.4°F-19.1°C -7.0°F-21.7°C 80% 6.0 mph N9.7 kmh N 10.0 mph16.1 kmh 30.77 in1042.0 mb 0.00 in0.0 mm 0.00 in0.0 mm 0.00 in0.0 mm
01:45 PM -2.4°F-19.1°C -7.0°F-21.7°C 80% 2.0 mph N3.2 kmh N 3.0 mph4.8 kmh 30.77 in1042.0 mb 0.00 in0.0 mm 0.00 in0.0 mm 0.00 in0.0 mm
01:50 PM -2.2°F-19.0°C -6.6°F-21.4°C 81% 3.0 mph N4.8 kmh N 7.0 mph11.3 kmh 30.77 in1042.0 mb 0.00 in0.0 mm 0.00 in0.0 mm 0.00 in0.0 mm
01:55 PM -2.1°F-18.9°C -6.5°F-21.4°C 81% 5.0 mph N8.0 kmh N 9.0 mph14.5 kmh 30.77 in1042.0 mb 0.00 in0.0 mm 0.00 in0.0 mm 0.00 in0.0 mm
02:00 PM -2.0°F-18.9°C -6.4°F-21.3°C 81% 5.0 mph N8.0 kmh N 5.0 mph8.0 kmh 30.77 in1042.0 mb 0.00 in0.0 mm 0.00 in0.0 mm 0.00 in0.0 mm
02:05 PM -1.9°F-18.8°C -6.3°F-21.3°C 81% 4.0 mph N6.4 kmh N 9.0 mph14.5 kmh 30.77 in1042.0 mb 0.00 in0.0 mm 0.00 in0.0 mm 0.00 in0.0 mm
02:10 PM -1.8°F-18.8°C -6.5°F-21.4°C 80% 3.0 mph N4.8 kmh N 9.0 mph14.5 kmh 30.77 in1042.0 mb 0.00 in0.0 mm 0.00 in0.0 mm 0.00 in0.0 mm
02:15 PM -1.8°F-18.8°C -6.5°F-21.4°C 80% 3.0 mph N4.8 kmh N 4.0 mph6.4 kmh 30.77 in1042.0 mb 0.00 in0.0 mm 0.00 in0.0 mm 0.00 in0.0 mm
02:20 PM -1.7°F-18.7°C -6.1°F-21.2°C 81% 2.0 mph N3.2 kmh N 8.0 mph12.9 kmh 30.76 in1041.7 mb 0.00 in0.0 mm 0.00 in0.0 mm 0.00 in0.0 mm
02:25 PM -1.5°F-18.6°C -5.9°F-21.1°C 81% 4.0 mph N6.4 kmh N 8.0 mph12.9 kmh 30.77 in1042.0 mb 0.00 in0.0 mm 0.00 in0.0 mm 0.00 in0.0 mm
02:30 PM -1.6°F-18.7°C -6.3°F-21.3°C 80% 6.0 mph N9.7 kmh N 6.0 mph9.7 kmh 30.76 in1041.7 mb 0.00 in0.0 mm 0.00 in0.0 mm 0.00 in0.0 mm
02:35 PM -1.5°F-18.6°C -6.2°F-21.2°C 80% 5.0 mph N8.0 kmh N 8.0 mph12.9 kmh 30.77 in1042.0 mb 0.00 in0.0 mm 0.00 in0.0 mm 0.00 in0.0 mm
02:40 PM -1.5°F-18.6°C -6.2°F-21.2°C 80% 4.0 mph N6.4 kmh N 8.0 mph12.9 kmh 30.77 in1042.0 mb 0.00 in0.0 mm 0.00 in0.0 mm 0.00 in0.0 mm
02:45 PM -1.5°F-18.6°C -6.2°F-21.2°C 80% 2.0 mph N3.2 kmh N 2.0 mph3.2 kmh 30.77 in1042.0 mb 0.00 in0.0 mm 0.00 in0.0 mm 0.00 in0.0 mm
02:50 PM -1.2°F-18.4°C -5.6°F-20.9°C 81% 2.0 mph N3.2 kmh N 8.0 mph12.9 kmh 30.77 in1042.0 mb 0.00 in0.0 mm 0.00 in0.0 mm 0.00 in0.0 mm
02:55 PM -1.1°F-18.4°C -5.8°F-21.0°C 80% 9.0 mph N14.5 kmh N 11.0 mph17.7 kmh 30.77 in1042.0 mb 0.00 in0.0 mm 0.00 in0.0 mm 0.00 in0.0 mm
03:00 PM -1.2°F-18.4°C -5.9°F-21.1°C 80% 5.0 mph N8.0 kmh N 6.0 mph9.7 kmh 30.77 in1042.0 mb 0.00 in0.0 mm 0.00 in0.0 mm 0.00 in0.0 mm
03:05 PM -1.3°F-18.5°C -6.0°F-21.1°C 80% 3.0 mph N4.8 kmh N 9.0 mph14.5 kmh 30.77 in1042.0 mb 0.00 in0.0 mm 0.00 in0.0 mm 0.00 in0.0 mm
03:10 PM -1.2°F-18.4°C -5.9°F-21.1°C 80% 3.0 mph N4.8 kmh N 9.0 mph14.5 kmh 30.77 in1042.0 mb 0.00 in0.0 mm 0.00 in0.0 mm 0.00 in0.0 mm
03:15 PM -1.2°F-18.4°C -5.9°F-21.1°C 80% 4.0 mph N6.4 kmh N 6.0 mph9.7 kmh 30.77 in1042.0 mb 0.00 in0.0 mm 0.00 in0.0 mm 0.00 in0.0 mm
03:20 PM -1.1°F-18.4°C -5.8°F-21.0°C 80% Calm Calm 8.0 mph12.9 kmh 30.77 in1042.0 mb 0.00 in0.0 mm 0.00 in0.0 mm 0.00 in0.0 mm
03:25 PM -1.0°F-18.3°C -5.7°F-20.9°C 80% 2.0 mph N3.2 kmh N 8.0 mph12.9 kmh 30.77 in1042.0 mb 0.00 in0.0 mm 0.00 in0.0 mm 0.00 in0.0 mm
03:30 PM -1.1°F-18.4°C -5.8°F-21.0°C 80% 1.0 mph N1.6 kmh N 3.0 mph4.8 kmh 30.77 in1042.0 mb 0.00 in0.0 mm 0.00 in0.0 mm 0.00 in0.0 mm
03:35 PM -1.2°F-18.4°C -5.9°F-21.1°C 80% 4.0 mph N6.4 kmh N 7.0 mph11.3 kmh 30.77 in1042.0 mb 0.00 in0.0 mm 0.00 in0.0 mm 0.00 in0.0 mm
03:40 PM -1.4°F-18.6°C -6.1°F-21.2°C 80% 6.0 mph N9.7 kmh N 10.0 mph16.1 kmh 30.77 in1042.0 mb 0.00 in0.0 mm 0.00 in0.0 mm 0.00 in0.0 mm
03:45 PM -1.6°F-18.7°C -6.3°F-21.3°C 80% 4.0 mph N6.4 kmh N 4.0 mph6.4 kmh 30.77 in1042.0 mb 0.00 in0.0 mm 0.00 in0.0 mm 0.00 in0.0 mm
03:50 PM -1.7°F-18.7°C -6.4°F-21.3°C 80% 7.0 mph N11.3 kmh N 10.0 mph16.1 kmh 30.77 in1042.0 mb 0.00 in0.0 mm 0.00 in0.0 mm 0.00 in0.0 mm
03:55 PM -1.9°F-18.8°C -6.8°F-21.6°C 79% 7.0 mph N11.3 kmh N 11.0 mph17.7 kmh 30.77 in1042.0 mb 0.00 in0.0 mm 0.00 in0.0 mm 0.00 in0.0 mm
04:00 PM -2.0°F-18.9°C -6.9°F-21.6°C 79% Calm Calm 1.0 mph1.6 kmh 30.77 in1042.0 mb 0.00 in0.0 mm 0.00 in0.0 mm 0.00 in0.0 mm
04:05 PM -2.0°F-18.9°C -6.6°F-21.4°C 80% 2.0 mph N3.2 kmh N 6.0 mph9.7 kmh 30.77 in1042.0 mb 0.00 in0.0 mm 0.00 in0.0 mm 0.00 in0.0 mm
04:10 PM -1.9°F-18.8°C -6.6°F-21.4°C 80% 3.0 mph N4.8 kmh N 6.0 mph9.7 kmh 30.77 in1042.0 mb 0.00 in0.0 mm 0.00 in0.0 mm 0.00 in0.0 mm
04:15 PM -2.0°F-18.9°C -6.6°F-21.4°C 80% 2.0 mph N3.2 kmh N 3.0 mph4.8 kmh 30.77 in1042.0 mb 0.00 in0.0 mm 0.00 in0.0 mm 0.00 in0.0 mm
04:20 PM -2.0°F-18.9°C -6.6°F-21.4°C 80% 2.0 mph N3.2 kmh N 5.0 mph8.0 kmh 30.77 in1042.0 mb 0.00 in0.0 mm 0.00 in0.0 mm 0.00 in0.0 mm
04:25 PM -2.0°F-18.9°C -6.6°F-21.4°C 80% 1.0 mph N1.6 kmh N 5.0 mph8.0 kmh 30.77 in1042.0 mb 0.00 in0.0 mm 0.00 in0.0 mm 0.00 in0.0 mm
04:30 PM -2.1°F-18.9°C -6.7°F-21.5°C 80% Calm Calm -- 30.77 in1042.0 mb 0.00 in0.0 mm 0.00 in0.0 mm 0.00 in0.0 mm
04:35 PM -2.2°F-19.0°C -6.8°F-21.6°C 80% 2.0 mph N3.2 kmh N 4.0 mph6.4 kmh 30.78 in1042.3 mb 0.00 in0.0 mm 0.00 in0.0 mm 0.00 in0.0 mm
04:40 PM -2.3°F-19.1°C -6.9°F-21.6°C 80% 1.0 mph N1.6 kmh N 4.0 mph6.4 kmh 30.78 in1042.3 mb 0.00 in0.0 mm 0.00 in0.0 mm 0.00 in0.0 mm
04:45 PM -2.4°F-19.1°C -7.0°F-21.7°C 80% 1.0 mph N1.6 kmh N 3.0 mph4.8 kmh 30.78 in1042.3 mb 0.00 in0.0 mm 0.00 in0.0 mm 0.00 in0.0 mm
04:50 PM -2.6°F-19.2°C -7.2°F-21.8°C 80% 1.0 mph N1.6 kmh N 5.0 mph8.0 kmh 30.78 in1042.3 mb 0.00 in0.0 mm 0.00 in0.0 mm 0.00 in0.0 mm
04:55 PM -2.7°F-19.3°C -7.3°F-21.8°C 80% 1.0 mph N1.6 kmh N 5.0 mph8.0 kmh 30.79 in1042.7 mb 0.00 in0.0 mm 0.00 in0.0 mm 0.00 in0.0 mm
05:00 PM -2.9°F-19.4°C -7.5°F-21.9°C 80% 2.0 mph N3.2 kmh N 2.0 mph3.2 kmh 30.79 in1042.7 mb 0.00 in0.0 mm 0.00 in0.0 mm 0.00 in0.0 mm
05:05 PM -3.0°F-19.4°C -7.6°F-22.0°C 80% 2.0 mph N3.2 kmh N 6.0 mph9.7 kmh 30.79 in1042.7 mb 0.00 in0.0 mm 0.00 in0.0 mm 0.00 in0.0 mm
05:10 PM -3.1°F-19.5°C -7.7°F-22.1°C 80% Calm Calm 6.0 mph9.7 kmh 30.79 in1042.7 mb 0.00 in0.0 mm 0.00 in0.0 mm 0.00 in0.0 mm
05:15 PM -3.2°F-19.6°C -7.8°F-22.1°C 80% Calm Calm 1.0 mph1.6 kmh 30.80 in1043.0 mb 0.00 in0.0 mm 0.00 in0.0 mm 0.00 in0.0 mm
05:20 PM -3.4°F-19.7°C -8.0°F-22.2°C 80% 2.0 mph N3.2 kmh N 6.0 mph9.7 kmh 30.80 in1043.0 mb 0.00 in0.0 mm 0.00 in0.0 mm 0.00 in0.0 mm
05:25 PM -3.5°F-19.7°C -8.1°F-22.3°C 80% 1.0 mph N1.6 kmh N 6.0 mph9.7 kmh 30.80 in1043.0 mb 0.00 in0.0 mm 0.00 in0.0 mm 0.00 in0.0 mm
05:30 PM -3.7°F-19.8°C -8.3°F-22.4°C 80% Calm Calm 1.0 mph1.6 kmh 30.80 in1043.0 mb 0.00 in0.0 mm 0.00 in0.0 mm 0.00 in0.0 mm
05:35 PM -3.9°F-19.9°C -8.5°F-22.5°C 80% 1.0 mph N1.6 kmh N 4.0 mph6.4 kmh 30.80 in1043.0 mb 0.00 in0.0 mm 0.00 in0.0 mm 0.00 in0.0 mm
05:40 PM -4.2°F-20.1°C -8.8°F-22.7°C 80% 1.0 mph N1.6 kmh N 6.0 mph9.7 kmh 30.80 in1043.0 mb 0.00 in0.0 mm 0.00 in0.0 mm 0.00 in0.0 mm
05:45 PM -4.4°F-20.2°C -9.0°F-22.8°C 80% Calm Calm 3.0 mph4.8 kmh 30.80 in1043.0 mb 0.00 in0.0 mm 0.00 in0.0 mm 0.00 in0.0 mm
05:50 PM -4.6°F-20.3°C -9.2°F-22.9°C 80% Calm Calm 4.0 mph6.4 kmh 30.80 in1043.0 mb 0.00 in0.0 mm 0.00 in0.0 mm 0.00 in0.0 mm
05:55 PM -4.8°F-20.4°C -9.1°F-22.8°C 81% Calm Calm 4.0 mph6.4 kmh 30.80 in1043.0 mb 0.00 in0.0 mm 0.00 in0.0 mm 0.00 in0.0 mm
06:00 PM -4.9°F-20.5°C -9.2°F-22.9°C 81% Calm Calm 1.0 mph1.6 kmh 30.80 in1043.0 mb 0.00 in0.0 mm 0.00 in0.0 mm 0.00 in0.0 mm
06:05 PM -5.0°F-20.6°C -9.3°F-22.9°C 81% Calm Calm 2.0 mph3.2 kmh 30.79 in1042.7 mb 0.00 in0.0 mm 0.00 in0.0 mm 0.00 in0.0 mm
06:10 PM -5.2°F-20.7°C -9.5°F-23.1°C 81% Calm Calm 2.0 mph3.2 kmh 30.80 in1043.0 mb 0.00 in0.0 mm 0.00 in0.0 mm 0.00 in0.0 mm
06:15 PM -5.3°F-20.7°C -9.6°F-23.1°C 81% Calm Calm -- 30.80 in1043.0 mb 0.00 in0.0 mm 0.00 in0.0 mm 0.00 in0.0 mm
06:20 PM -5.3°F-20.7°C -9.6°F-23.1°C 81% Calm Calm 2.0 mph3.2 kmh 30.80 in1043.0 mb 0.00 in0.0 mm 0.00 in0.0 mm 0.00 in0.0 mm
06:25 PM -5.3°F-20.7°C -9.6°F-23.1°C 81% Calm Calm 2.0 mph3.2 kmh 30.80 in1043.0 mb 0.00 in0.0 mm 0.00 in0.0 mm 0.00 in0.0 mm
06:30 PM -5.4°F-20.8°C -9.7°F-23.2°C 81% Calm Calm -- 30.80 in1043.0 mb 0.00 in0.0 mm 0.00 in0.0 mm 0.00 in0.0 mm
06:35 PM -5.4°F-20.8°C -9.7°F-23.2°C 81% Calm Calm -- 30.79 in1042.7 mb 0.00 in0.0 mm 0.00 in0.0 mm 0.00 in0.0 mm
06:40 PM -5.5°F-20.8°C -9.8°F-23.2°C 81% Calm Calm -- 30.79 in1042.7 mb 0.00 in0.0 mm 0.00 in0.0 mm 0.00 in0.0 mm
06:45 PM -5.5°F-20.8°C -9.8°F-23.2°C 81% Calm Calm -- 30.79 in1042.7 mb 0.00 in0.0 mm 0.00 in0.0 mm 0.00 in0.0 mm
06:50 PM -5.7°F-20.9°C -10.0°F-23.3°C 81% Calm Calm 1.0 mph1.6 kmh 30.80 in1043.0 mb 0.00 in0.0 mm 0.00 in0.0 mm 0.00 in0.0 mm
06:55 PM -5.7°F-20.9°C -10.0°F-23.3°C 81% Calm Calm 1.0 mph1.6 kmh 30.81 in1043.3 mb 0.00 in0.0 mm 0.00 in0.0 mm 0.00 in0.0 mm
07:00 PM -5.8°F-21.0°C -10.1°F-23.4°C 81% Calm Calm -- 30.80 in1043.0 mb 0.00 in0.0 mm 0.00 in0.0 mm 0.00 in0.0 mm
07:05 PM -5.8°F-21.0°C -10.1°F-23.4°C 81% Calm Calm 1.0 mph1.6 kmh 30.81 in1043.3 mb 0.00 in0.0 mm 0.00 in0.0 mm 0.00 in0.0 mm
07:10 PM -6.0°F-21.1°C -10.3°F-23.5°C 81% Calm Calm 1.0 mph1.6 kmh 30.81 in1043.3 mb 0.00 in0.0 mm 0.00 in0.0 mm 0.00 in0.0 mm
07:15 PM -6.0°F-21.1°C -10.3°F-23.5°C 81% Calm Calm -- 30.81 in1043.3 mb 0.00 in0.0 mm 0.00 in0.0 mm 0.00 in0.0 mm
07:20 PM -6.1°F-21.2°C -10.4°F-23.6°C 81% Calm Calm 1.0 mph1.6 kmh 30.80 in1043.0 mb 0.00 in0.0 mm 0.00 in0.0 mm 0.00 in0.0 mm
07:25 PM -6.2°F-21.2°C -10.3°F-23.5°C 82% Calm Calm 1.0 mph1.6 kmh 30.80 in1043.0 mb 0.00 in0.0 mm 0.00 in0.0 mm 0.00 in0.0 mm
07:30 PM -6.2°F-21.2°C -10.3°F-23.5°C 82% Calm Calm -- 30.80 in1043.0 mb 0.00 in0.0 mm 0.00 in0.0 mm 0.00 in0.0 mm
07:35 PM -6.2°F-21.2°C -10.3°F-23.5°C 82% Calm Calm -- 30.79 in1042.7 mb 0.00 in0.0 mm 0.00 in0.0 mm 0.00 in0.0 mm
07:40 PM -6.2°F-21.2°C -10.3°F-23.5°C 82% Calm Calm -- 30.80 in1043.0 mb 0.00 in0.0 mm 0.00 in0.0 mm 0.00 in0.0 mm
07:45 PM -6.3°F-21.3°C -10.4°F-23.6°C 82% Calm Calm -- 30.80 in1043.0 mb 0.00 in0.0 mm 0.00 in0.0 mm 0.00 in0.0 mm
07:50 PM -6.3°F-21.3°C -10.4°F-23.6°C 82% 1.0 mph N1.6 kmh N 2.0 mph3.2 kmh 30.80 in1043.0 mb 0.00 in0.0 mm 0.00 in0.0 mm 0.00 in0.0 mm
07:55 PM -6.3°F-21.3°C -10.4°F-23.6°C 82% Calm Calm 2.0 mph3.2 kmh 30.80 in1043.0 mb 0.00 in0.0 mm 0.00 in0.0 mm 0.00 in0.0 mm
08:00 PM -6.4°F-21.3°C -10.5°F-23.6°C 82% Calm Calm -- 30.80 in1043.0 mb 0.00 in0.0 mm 0.00 in0.0 mm 0.00 in0.0 mm
08:05 PM -6.4°F-21.3°C -10.5°F-23.6°C 82% 1.0 mph N1.6 kmh N 2.0 mph3.2 kmh 30.81 in1043.3 mb 0.00 in0.0 mm 0.00 in0.0 mm 0.00 in0.0 mm
08:10 PM -6.4°F-21.3°C -10.5°F-23.6°C 82% 1.0 mph N1.6 kmh N 2.0 mph3.2 kmh 30.81 in1043.3 mb 0.00 in0.0 mm 0.00 in0.0 mm 0.00 in0.0 mm
08:15 PM -6.6°F-21.4°C -10.6°F-23.7°C 82% Calm Calm 1.0 mph1.6 kmh 30.81 in1043.3 mb 0.00 in0.0 mm 0.00 in0.0 mm 0.00 in0.0 mm
08:20 PM -6.6°F-21.4°C -10.6°F-23.7°C 82% Calm Calm 2.0 mph3.2 kmh 30.81 in1043.3 mb 0.00 in0.0 mm 0.00 in0.0 mm 0.00 in0.0 mm
08:25 PM -6.6°F-21.4°C -10.6°F-23.7°C 82% Calm Calm 2.0 mph3.2 kmh 30.80 in1043.0 mb 0.00 in0.0 mm 0.00 in0.0 mm 0.00 in0.0 mm
08:30 PM -6.7°F-21.5°C -10.7°F-23.7°C 82% Calm Calm -- 30.81 in1043.3 mb 0.00 in0.0 mm 0.00 in0.0 mm 0.00 in0.0 mm
08:35 PM -6.7°F-21.5°C -10.7°F-23.7°C 82% Calm Calm 1.0 mph1.6 kmh 30.81 in1043.3 mb 0.00 in0.0 mm 0.00 in0.0 mm 0.00 in0.0 mm
08:40 PM -6.8°F-21.6°C -10.8°F-23.8°C 82% 2.0 mph N3.2 kmh N 2.0 mph3.2 kmh 30.81 in1043.3 mb 0.00 in0.0 mm 0.00 in0.0 mm 0.00 in0.0 mm
08:45 PM -6.8°F-21.6°C -10.8°F-23.8°C 82% 1.0 mph N1.6 kmh N 1.0 mph1.6 kmh 30.81 in1043.3 mb 0.00 in0.0 mm 0.00 in0.0 mm 0.00 in0.0 mm
08:50 PM -6.9°F-21.6°C -10.9°F-23.8°C 82% Calm Calm 2.0 mph3.2 kmh 30.81 in1043.3 mb 0.00 in0.0 mm 0.00 in0.0 mm 0.00 in0.0 mm
08:55 PM -6.9°F-21.6°C -10.9°F-23.8°C 82% Calm Calm 2.0 mph3.2 kmh 30.81 in1043.3 mb 0.00 in0.0 mm 0.00 in0.0 mm 0.00 in0.0 mm
09:00 PM -6.9°F-21.6°C -10.9°F-23.8°C 82% 2.0 mph N3.2 kmh N 2.0 mph3.2 kmh 30.81 in1043.3 mb 0.00 in0.0 mm 0.00 in0.0 mm 0.00 in0.0 mm
09:05 PM -6.8°F-21.6°C -10.8°F-23.8°C 82% Calm Calm 4.0 mph6.4 kmh 30.81 in1043.3 mb 0.00 in0.0 mm 0.00 in0.0 mm 0.00 in0.0 mm
09:10 PM -6.7°F-21.5°C -10.7°F-23.7°C 82% 1.0 mph N1.6 kmh N 4.0 mph6.4 kmh 30.81 in1043.3 mb 0.00 in0.0 mm 0.00 in0.0 mm 0.00 in0.0 mm
09:15 PM -6.5°F-21.4°C -10.6°F-23.7°C 82% Calm Calm -- 30.81 in1043.3 mb 0.00 in0.0 mm 0.00 in0.0 mm 0.00 in0.0 mm
09:20 PM -6.4°F-21.3°C -10.5°F-23.6°C 82% Calm Calm 2.0 mph3.2 kmh 30.81 in1043.3 mb 0.00 in0.0 mm 0.00 in0.0 mm 0.00 in0.0 mm
09:25 PM -6.3°F-21.3°C -10.4°F-23.6°C 82% 2.0 mph N3.2 kmh N 5.0 mph8.0 kmh 30.82 in1043.7 mb 0.00 in0.0 mm 0.00 in0.0 mm 0.00 in0.0 mm
09:30 PM -6.2°F-21.2°C -10.3°F-23.5°C 82% Calm Calm -- 30.81 in1043.3 mb 0.00 in0.0 mm 0.00 in0.0 mm 0.00 in0.0 mm
09:35 PM -6.2°F-21.2°C -10.3°F-23.5°C 82% Calm Calm 2.0 mph3.2 kmh 30.81 in1043.3 mb 0.00 in0.0 mm 0.00 in0.0 mm 0.00 in0.0 mm
09:40 PM -6.1°F-21.2°C -10.2°F-23.4°C 82% Calm Calm 3.0 mph4.8 kmh 30.81 in1043.3 mb 0.00 in0.0 mm 0.00 in0.0 mm 0.00 in0.0 mm
09:45 PM -6.1°F-21.2°C -10.2°F-23.4°C 82% Calm Calm -- 30.81 in1043.3 mb 0.00 in0.0 mm 0.00 in0.0 mm 0.00 in0.0 mm
09:50 PM -5.8°F-21.0°C -9.6°F-23.1°C 83% Calm Calm 2.0 mph3.2 kmh 30.81 in1043.3 mb 0.00 in0.0 mm 0.00 in0.0 mm 0.00 in0.0 mm
09:55 PM -5.5°F-20.8°C -9.3°F-22.9°C 83% Calm Calm 2.0 mph3.2 kmh 30.82 in1043.7 mb 0.00 in0.0 mm 0.00 in0.0 mm 0.00 in0.0 mm
10:00 PM -5.4°F-20.8°C -9.5°F-23.1°C 82% Calm Calm -- 30.82 in1043.7 mb 0.00 in0.0 mm 0.00 in0.0 mm 0.00 in0.0 mm
10:05 PM -5.3°F-20.7°C -9.4°F-23.0°C 82% Calm Calm 1.0 mph1.6 kmh 30.82 in1043.7 mb 0.00 in0.0 mm 0.00 in0.0 mm 0.00 in0.0 mm
10:10 PM -5.2°F-20.7°C -9.3°F-22.9°C 82% Calm Calm 3.0 mph4.8 kmh 30.81 in1043.3 mb 0.00 in0.0 mm 0.00 in0.0 mm 0.00 in0.0 mm
10:15 PM -5.1°F-20.6°C -9.2°F-22.9°C 82% Calm Calm 1.0 mph1.6 kmh 30.81 in1043.3 mb 0.00 in0.0 mm 0.00 in0.0 mm 0.00 in0.0 mm
10:20 PM -4.9°F-20.5°C -9.0°F-22.8°C 82% 1.0 mph N1.6 kmh N 3.0 mph4.8 kmh 30.82 in1043.7 mb 0.00 in0.0 mm 0.00 in0.0 mm 0.00 in0.0 mm
10:25 PM -4.8°F-20.4°C -8.9°F-22.7°C 82% Calm Calm 3.0 mph4.8 kmh 30.82 in1043.7 mb 0.00 in0.0 mm 0.00 in0.0 mm 0.00 in0.0 mm
10:30 PM -4.7°F-20.4°C -8.8°F-22.7°C 82% 1.0 mph N1.6 kmh N 1.0 mph1.6 kmh 30.82 in1043.7 mb 0.00 in0.0 mm 0.00 in0.0 mm 0.00 in0.0 mm
10:35 PM -4.5°F-20.3°C -8.6°F-22.6°C 82% Calm Calm 2.0 mph3.2 kmh 30.82 in1043.7 mb 0.00 in0.0 mm 0.00 in0.0 mm 0.00 in0.0 mm
10:40 PM -4.4°F-20.2°C -8.2°F-22.3°C 83% Calm Calm 2.0 mph3.2 kmh 30.81 in1043.3 mb 0.00 in0.0 mm 0.00 in0.0 mm 0.00 in0.0 mm
10:45 PM -4.2°F-20.1°C -8.0°F-22.2°C 83% Calm Calm -- 30.81 in1043.3 mb 0.00 in0.0 mm 0.00 in0.0 mm 0.00 in0.0 mm
10:50 PM -4.0°F-20.0°C -8.1°F-22.3°C 82% Calm Calm 1.0 mph1.6 kmh 30.81 in1043.3 mb 0.00 in0.0 mm 0.00 in0.0 mm 0.00 in0.0 mm
10:55 PM -3.9°F-19.9°C -7.8°F-22.1°C 83% Calm Calm 3.0 mph4.8 kmh 30.81 in1043.3 mb 0.00 in0.0 mm 0.00 in0.0 mm 0.00 in0.0 mm
11:00 PM -3.9°F-19.9°C -8.0°F-22.2°C 82% Calm Calm 2.0 mph3.2 kmh 30.81 in1043.3 mb 0.00 in0.0 mm 0.00 in0.0 mm 0.00 in0.0 mm
11:05 PM -3.8°F-19.9°C -7.9°F-22.2°C 82% Calm Calm 3.0 mph4.8 kmh 30.81 in1043.3 mb 0.00 in0.0 mm 0.00 in0.0 mm 0.00 in0.0 mm
11:10 PM -3.8°F-19.9°C -7.9°F-22.2°C 82% Calm Calm 3.0 mph4.8 kmh 30.81 in1043.3 mb 0.00 in0.0 mm 0.00 in0.0 mm 0.00 in0.0 mm
11:15 PM -3.7°F-19.8°C -7.8°F-22.1°C 82% Calm Calm -- 30.81 in1043.3 mb 0.00 in0.0 mm 0.00 in0.0 mm 0.00 in0.0 mm
11:20 PM -3.6°F-19.8°C -7.7°F-22.1°C 82% Calm Calm 1.0 mph1.6 kmh 30.81 in1043.3 mb 0.00 in0.0 mm 0.00 in0.0 mm 0.00 in0.0 mm
11:25 PM -3.6°F-19.8°C -7.7°F-22.1°C 82% Calm Calm 1.0 mph1.6 kmh 30.81 in1043.3 mb 0.00 in0.0 mm 0.00 in0.0 mm 0.00 in0.0 mm
11:30 PM -3.5°F-19.7°C -7.6°F-22.0°C 82% Calm Calm -- 30.81 in1043.3 mb 0.00 in0.0 mm 0.00 in0.0 mm 0.00 in0.0 mm
11:35 PM -3.4°F-19.7°C -7.3°F-21.8°C 83% Calm Calm 2.0 mph3.2 kmh 30.81 in1043.3 mb 0.00 in0.0 mm 0.00 in0.0 mm 0.00 in0.0 mm
11:40 PM -3.3°F-19.6°C -7.2°F-21.8°C 83% Calm Calm 3.0 mph4.8 kmh 30.82 in1043.7 mb 0.00 in0.0 mm 0.00 in0.0 mm 0.00 in0.0 mm
11:45 PM -3.2°F-19.6°C -7.1°F-21.7°C 83% Calm Calm -- 30.82 in1043.7 mb 0.00 in0.0 mm 0.00 in0.0 mm 0.00 in0.0 mm
11:50 PM -3.0°F-19.4°C -6.9°F-21.6°C 83% Calm Calm 2.0 mph3.2 kmh 30.82 in1043.7 mb 0.00 in0.0 mm 0.00 in0.0 mm 0.00 in0.0 mm
11:55 PM -2.9°F-19.4°C -6.8°F-21.6°C 83% Calm Calm 2.0 mph3.2 kmh 30.81 in1043.3 mb 0.00 in0.0 mm 0.00 in0.0 mm 0.00 in0.0 mm